Time;durP1;ratioP1;P1;durP2;ratioP2;P2;SDS_P1;SDS_P2;PMS_P1;PMS_P2;Temp;Humidity;BMP_temperature;BMP_pressure;BME280_temperature;BME280_humidity;BME280_pressure;Samples;Min_cycle;Max_cycle;Signal;HPM_P1;HPM_P2
2021/08/21 00:01:06;;;;;;;31.48;20.38;;;16.30;99.90;;;;;;4952366;29;20116;-50
2021/08/21 00:03:33;;;;;;;32.83;21.58;;;16.30;99.90;;;;;;4949357;29;20055;-51
2021/08/21 00:05:59;;;;;;;38.72;23.60;;;16.20;99.90;;;;;;4932035;29;20052;-51
2021/08/21 00:08:26;;;;;;;41.10;25.42;;;16.20;99.90;;;;;;4911614;29;20051;-51
2021/08/21 00:10:51;;;;;;;21.33;14.77;;;16.30;99.90;;;;;;4956002;29;20051;-50
2021/08/21 00:13:17;;;;;;;11.15;8.35;;;16.30;99.90;;;;;;4948883;29;20061;-51
2021/08/21 00:15:44;;;;;;;12.90;9.15;;;16.30;99.90;;;;;;4918283;29;20046;-51
2021/08/21 00:18:09;;;;;;;10.75;9.63;;;16.20;99.90;;;;;;4958439;28;20673;-50
2021/08/21 00:20:35;;;;;;;16.02;12.07;;;16.10;99.90;;;;;;4957442;28;20086;-52
2021/08/21 00:23:00;;;;;;;16.90;13.65;;;16.10;99.90;;;;;;4947527;29;20043;-54
2021/08/21 00:25:27;;;;;;;27.73;20.25;;;16.10;99.90;;;;;;4954917;29;20456;-51
2021/08/21 00:27:53;;;;;;;31.30;20.80;;;16.10;99.90;;;;;;4941383;28;20054;-50
2021/08/21 00:30:19;;;;;;;22.67;18.48;;;16.10;99.90;;;;;;4926732;29;20298;-51
2021/08/21 00:32:44;;;;;;;35.67;21.23;;;16.10;99.90;;;;;;4951204;28;20051;-51
2021/08/21 00:35:11;;;;;;;30.90;21.98;;;16.10;99.90;;;;;;4953727;28;20463;-48
2021/08/21 00:37:38;;;;;;;28.00;20.17;;;16.10;99.90;;;;;;4950110;28;20423;-55
2021/08/21 00:40:06;;;;;;;38.28;24.85;;;16.10;99.90;;;;;;4922047;29;20105;-52
2021/08/21 00:42:31;;;;;;;29.17;21.45;;;16.10;99.90;;;;;;4953323;29;20036;-53
2021/08/21 00:44:57;;;;;;;30.88;20.20;;;16.10;99.90;;;;;;4953370;28;20057;-54
2021/08/21 00:47:23;;;;;;;36.40;19.77;;;16.10;99.90;;;;;;4934643;29;20057;-54
2021/08/21 00:49:53;;;;;;;27.10;18.45;;;16.00;99.90;;;;;;4951585;29;20409;-48
2021/08/21 00:52:39;;;;;;;19.08;12.50;;;16.00;99.90;;;;;;4945361;29;20516;-49
2021/08/21 00:55:08;;;;;;;33.63;14.43;;;16.00;99.90;;;;;;4932793;28;20103;-52
2021/08/21 00:57:33;;;;;;;58.42;16.20;;;15.90;99.90;;;;;;4945028;28;20070;-51
2021/08/21 01:00:00;;;;;;;30.35;15.48;;;15.80;99.80;;;;;;4953533;29;20237;-51
2021/08/21 01:02:27;;;;;;;30.08;15.25;;;15.80;99.80;;;;;;4936423;29;20094;-49
2021/08/21 01:04:57;;;;;;;27.00;16.55;;;15.70;99.90;;;;;;4948388;28;20047;-48
2021/08/21 01:07:27;;;;;;;39.50;19.85;;;15.70;99.90;;;;;;4966839;28;20042;-48
2021/08/21 01:09:52;;;;;;;43.28;20.00;;;15.60;99.90;;;;;;4967420;28;20104;-51
2021/08/21 01:12:21;;;;;;;36.92;20.80;;;15.50;99.90;;;;;;4944204;28;20050;-51
2021/08/21 01:14:49;;;;;;;35.38;21.90;;;15.50;99.90;;;;;;4949795;28;20050;-50
2021/08/21 01:17:17;;;;;;;122.72;26.40;;;15.50;99.90;;;;;;4916889;28;20073;-48
2021/08/21 01:19:46;;;;;;;73.30;21.30;;;15.50;99.90;;;;;;4950996;28;20484;-51
2021/08/21 01:22:14;;;;;;;88.10;22.40;;;15.50;99.90;;;;;;4953411;28;20051;-48
2021/08/21 01:24:45;;;;;;;110.38;23.10;;;15.40;99.90;;;;;;4953718;28;20047;-53
2021/08/21 01:27:20;;;;;;;30.58;20.38;;;15.40;99.90;;;;;;4950322;28;20102;-50
2021/08/21 01:29:46;;;;;;;31.08;20.20;;;15.40;99.90;;;;;;4952879;29;20144;-51
2021/08/21 01:32:12;;;;;;;35.28;22.25;;;15.30;99.90;;;;;;4953126;29;20115;-52
2021/08/21 01:34:38;;;;;;;30.30;20.45;;;15.30;99.90;;;;;;4952777;29;20071;-53
2021/08/21 01:37:04;;;;;;;32.03;20.63;;;15.30;99.90;;;;;;4953611;28;20066;-50
2021/08/21 01:39:29;;;;;;;25.80;19.63;;;15.30;99.90;;;;;;4954422;28;20035;-50
2021/08/21 01:41:56;;;;;;;28.95;21.13;;;15.20;99.90;;;;;;4953803;29;20039;-50
2021/08/21 01:44:22;;;;;;;30.85;21.58;;;15.20;99.90;;;;;;4936749;29;20047;-48
2021/08/21 01:46:48;;;;;;;32.05;21.38;;;15.20;99.90;;;;;;4954293;28;20090;-48
2021/08/21 01:49:16;;;;;;;29.23;20.20;;;15.20;99.90;;;;;;4953283;28;20118;-48
2021/08/21 01:51:45;;;;;;;29.40;19.60;;;15.20;99.90;;;;;;4934034;29;20078;-51
2021/08/21 01:54:11;;;;;;;36.35;21.50;;;15.20;99.90;;;;;;4935258;28;20051;-51
2021/08/21 01:56:47;;;;;;;27.35;19.92;;;15.20;99.90;;;;;;4928487;29;20043;-52
2021/08/21 01:59:32;;;;;;;25.58;18.73;;;15.10;99.90;;;;;;4954964;28;20046;-51
2021/08/21 02:01:58;;;;;;;22.08;17.30;;;15.10;99.90;;;;;;4944435;29;20054;-48
2021/08/21 02:04:25;;;;;;;25.52;18.52;;;15.10;99.90;;;;;;4935754;29;20051;-54
2021/08/21 02:06:51;;;;;;;18.67;14.23;;;15.00;99.90;;;;;;4952933;28;20085;-54
2021/08/21 02:09:20;;;;;;;14.15;11.73;;;15.00;99.90;;;;;;4952954;28;20427;-54
2021/08/21 02:11:47;;;;;;;10.93;9.82;;;15.00;99.90;;;;;;4953315;29;20039;-54
2021/08/21 02:14:15;;;;;;;12.45;11.13;;;14.90;99.90;;;;;;4935370;29;20122;-54
2021/08/21 02:16:43;;;;;;;17.33;11.70;;;14.90;99.90;;;;;;4952060;28;20122;-54
2021/08/21 02:19:09;;;;;;;13.85;11.80;;;14.80;99.90;;;;;;4953408;29;20047;-54
2021/08/21 02:21:38;;;;;;;17.58;12.90;;;14.80;99.90;;;;;;4955135;28;20094;-54
2021/08/21 02:24:04;;;;;;;14.77;13.18;;;14.80;99.90;;;;;;4952518;28;20464;-51
2021/08/21 02:26:30;;;;;;;16.15;12.77;;;14.80;99.90;;;;;;4953191;29;20137;-52
2021/08/21 02:28:56;;;;;;;13.88;12.25;;;14.70;99.90;;;;;;4965462;28;20097;-54
2021/08/21 02:31:22;;;;;;;14.48;12.98;;;14.70;99.90;;;;;;4945369;29;20035;-54
2021/08/21 02:33:48;;;;;;;15.38;12.95;;;14.70;99.90;;;;;;4942715;29;20044;-52
2021/08/21 02:36:15;;;;;;;14.23;12.52;;;14.70;99.90;;;;;;4944298;29;20162;-54
2021/08/21 02:38:42;;;;;;;14.43;12.85;;;14.70;99.90;;;;;;4944469;29;20036;-52
2021/08/21 02:41:08;;;;;;;17.67;12.90;;;14.70;99.90;;;;;;4944811;29;20039;-54
2021/08/21 02:43:34;;;;;;;17.20;13.32;;;14.70;99.90;;;;;;4920080;28;20486;-53
2021/08/21 02:46:00;;;;;;;18.35;14.13;;;14.80;99.90;;;;;;4953263;28;20401;-54
2021/08/21 02:48:26;;;;;;;18.20;13.75;;;14.80;99.90;;;;;;4952534;29;20047;-53
2021/08/21 02:50:52;;;;;;;22.15;14.30;;;14.80;99.90;;;;;;4952644;28;20070;-54
2021/08/21 02:53:19;;;;;;;68.75;16.00;;;14.70;99.90;;;;;;4951757;28;20093;-54
2021/08/21 02:55:45;;;;;;;51.00;16.73;;;14.70;99.90;;;;;;4951353;28;20416;-53
2021/08/21 02:58:10;;;;;;;50.75;16.60;;;14.80;99.90;;;;;;4952666;29;20039;-53
2021/08/21 03:00:37;;;;;;;50.08;16.92;;;14.80;99.90;;;;;;4952971;28;20062;-54
2021/08/21 03:03:03;;;;;;;19.95;16.33;;;14.70;99.90;;;;;;4934968;29;20045;-53
2021/08/21 03:05:29;;;;;;;48.70;17.23;;;14.70;99.90;;;;;;4952699;28;20055;-52
2021/08/21 03:07:55;;;;;;;20.75;15.90;;;14.70;99.90;;;;;;4934648;29;20066;-54
2021/08/21 03:10:21;;;;;;;26.33;17.17;;;14.70;99.90;;;;;;4952361;29;20043;-50
2021/08/21 03:12:47;;;;;;;24.40;16.23;;;14.70;99.90;;;;;;4935282;28;20081;-50
2021/08/21 03:15:13;;;;;;;27.35;17.27;;;14.80;99.90;;;;;;4951726;28;20496;-51
2021/08/21 03:17:40;;;;;;;23.77;16.10;;;14.80;99.90;;;;;;4917341;28;20055;-48
2021/08/21 03:20:06;;;;;;;35.78;16.65;;;14.80;99.90;;;;;;4955116;28;20415;-47
2021/08/21 03:22:33;;;;;;;34.40;18.00;;;14.80;99.90;;;;;;4955867;28;20093;-49
2021/08/21 03:24:59;;;;;;;39.13;18.30;;;14.80;99.90;;;;;;4966373;28;20055;-54
2021/08/21 03:27:24;;;;;;;27.58;17.15;;;14.80;99.90;;;;;;4938318;29;20408;-48
2021/08/21 03:29:51;;;;;;;24.65;17.40;;;14.80;99.90;;;;;;4955135;28;20046;-51
2021/08/21 03:32:17;;;;;;;37.30;18.08;;;14.80;99.90;;;;;;4961225;28;20043;-49
2021/08/21 03:34:44;;;;;;;63.97;20.58;;;14.80;99.90;;;;;;4974682;28;20090;-51
2021/08/21 03:37:11;;;;;;;104.85;21.95;;;14.90;99.90;;;;;;4913963;29;20058;-52
2021/08/21 03:39:38;;;;;;;94.50;23.52;;;14.90;99.90;;;;;;4949768;29;20051;-48
2021/08/21 03:42:05;;;;;;;172.85;24.45;;;14.90;99.90;;;;;;4943335;29;20094;-52
2021/08/21 03:44:31;;;;;;;102.88;23.30;;;14.90;99.90;;;;;;4953698;28;20122;-51
2021/08/21 03:46:57;;;;;;;108.68;24.35;;;14.80;99.90;;;;;;4919254;28;20097;-50
2021/08/21 03:49:22;;;;;;;88.95;23.77;;;14.90;99.90;;;;;;4958710;28;20047;-50
2021/08/21 03:51:48;;;;;;;122.30;23.90;;;14.80;99.90;;;;;;4954665;28;20071;-49
2021/08/21 03:54:14;;;;;;;139.40;24.48;;;14.80;99.90;;;;;;4958506;28;20035;-52
2021/08/21 03:56:39;;;;;;;94.30;23.77;;;14.80;99.90;;;;;;4959674;28;20073;-51
2021/08/21 03:59:05;;;;;;;102.05;22.17;;;14.80;99.90;;;;;;4960484;28;20464;-51
2021/08/21 04:01:31;;;;;;;98.95;22.52;;;14.80;99.90;;;;;;4957048;28;20385;-51
2021/08/21 04:03:57;;;;;;;176.73;24.70;;;14.80;99.90;;;;;;4959753;28;20046;-51
2021/08/21 04:06:23;;;;;;;54.72;21.45;;;14.80;99.90;;;;;;4938639;29;20086;-52
2021/08/21 04:08:49;;;;;;;124.10;24.02;;;14.80;99.90;;;;;;4925638;29;20582;-50
2021/08/21 04:11:14;;;;;;;75.45;21.45;;;14.80;99.90;;;;;;4954506;29;20110;-53
2021/08/21 04:13:41;;;;;;;126.43;24.55;;;14.80;99.90;;;;;;4927522;29;20420;-52
2021/08/21 04:16:07;;;;;;;176.05;23.80;;;14.80;99.90;;;;;;4960087;28;20043;-50
2021/08/21 04:18:32;;;;;;;133.07;22.15;;;14.80;99.90;;;;;;4954755;29;20159;-51
2021/08/21 04:20:58;;;;;;;123.50;22.92;;;14.80;99.90;;;;;;4951148;28;20131;-53
2021/08/21 04:23:24;;;;;;;118.97;21.20;;;14.80;99.90;;;;;;4957876;28;20408;-48
2021/08/21 04:25:50;;;;;;;98.40;23.45;;;14.80;99.90;;;;;;4958519;28;20042;-51
2021/08/21 04:28:16;;;;;;;130.25;23.70;;;14.70;99.90;;;;;;4954613;28;20476;-51
2021/08/21 04:30:42;;;;;;;55.70;22.23;;;14.70;99.90;;;;;;4930514;28;20447;-49
2021/08/21 04:33:08;;;;;;;63.50;18.08;;;14.70;99.90;;;;;;4954379;29;20051;-48
2021/08/21 04:35:34;;;;;;;97.18;20.05;;;14.70;99.90;;;;;;4954364;28;20102;-51
2021/08/21 04:38:01;;;;;;;84.40;19.10;;;14.70;99.90;;;;;;4938061;29;20035;-48
2021/08/21 04:40:28;;;;;;;85.22;21.08;;;14.70;99.90;;;;;;4966417;28;20043;-51
2021/08/21 04:42:54;;;;;;;75.72;19.48;;;14.70;99.90;;;;;;4948615;28;20487;-48
2021/08/21 04:45:20;;;;;;;82.05;20.13;;;14.70;99.90;;;;;;4961563;28;20110;-48
2021/08/21 04:47:46;;;;;;;57.13;20.98;;;14.70;99.90;;;;;;4961342;28;20046;-51
2021/08/21 04:50:12;;;;;;;99.07;19.77;;;14.60;99.90;;;;;;4956387;28;20539;-51
2021/08/21 04:52:38;;;;;;;71.53;19.85;;;14.70;99.90;;;;;;4952621;28;20066;-49
2021/08/21 04:55:04;;;;;;;67.55;19.45;;;14.70;99.90;;;;;;4953637;29;20074;-51
2021/08/21 04:57:30;;;;;;;96.65;19.38;;;14.60;99.90;;;;;;4960284;28;20109;-50
2021/08/21 04:59:56;;;;;;;128.27;21.30;;;14.60;99.90;;;;;;4947713;28;20039;-50
2021/08/21 05:02:22;;;;;;;128.60;20.02;;;14.60;99.90;;;;;;4960844;28;20114;-50
2021/08/21 05:04:48;;;;;;;112.30;20.92;;;14.60;99.90;;;;;;4943097;28;20067;-49
2021/08/21 05:07:13;;;;;;;53.83;17.98;;;14.60;99.90;;;;;;4929940;29;20089;-49
2021/08/21 05:09:39;;;;;;;63.28;19.40;;;14.60;99.90;;;;;;4959869;28;20051;-52
2021/08/21 05:12:05;;;;;;;59.10;17.55;;;14.60;99.90;;;;;;4949101;29;20051;-55
2021/08/21 05:14:31;;;;;;;58.45;18.42;;;14.60;99.90;;;;;;4955482;28;20038;-55
2021/08/21 05:16:56;;;;;;;67.38;18.88;;;14.60;99.90;;;;;;4949139;29;20054;-54
2021/08/21 05:24:47;;;;;;;67.03;19.13;;;14.50;99.90;;;;;;4953136;29;20047;-55
2021/08/21 05:27:14;;;;;;;82.40;20.17;;;14.50;99.90;;;;;;4954184;29;20053;-52
2021/08/21 05:29:39;;;;;;;63.50;20.05;;;14.50;99.90;;;;;;4945752;29;20059;-55
2021/08/21 05:32:06;;;;;;;62.50;19.63;;;14.50;99.90;;;;;;4953370;29;20055;-55
2021/08/21 05:34:31;;;;;;;43.55;18.02;;;14.50;99.90;;;;;;4961922;28;20328;-53
2021/08/21 05:36:57;;;;;;;80.78;21.75;;;14.50;99.90;;;;;;4960892;28;20102;-55
2021/08/21 05:39:23;;;;;;;43.97;19.70;;;14.50;99.90;;;;;;4955913;28;20115;-54
2021/08/21 05:41:50;;;;;;;77.70;19.55;;;14.50;99.90;;;;;;4949540;28;20048;-51
2021/08/21 05:44:15;;;;;;;96.90;21.23;;;14.50;99.90;;;;;;4949097;29;20040;-50
2021/08/21 05:46:41;;;;;;;61.90;20.88;;;14.50;99.90;;;;;;4949453;29;20041;-49
2021/08/21 05:49:07;;;;;;;122.57;22.17;;;14.50;99.90;;;;;;4953057;29;20047;-50
2021/08/21 05:51:33;;;;;;;72.18;22.88;;;14.60;99.90;;;;;;4953766;29;20043;-48
2021/08/21 05:54:00;;;;;;;34.45;19.00;;;14.60;99.90;;;;;;4930924;29;20060;-52
2021/08/21 05:56:26;;;;;;;52.08;20.83;;;14.60;99.90;;;;;;4913821;29;20042;-48
2021/08/21 05:58:52;;;;;;;79.10;21.98;;;14.60;99.90;;;;;;4952948;29;20412;-50
2021/08/21 06:01:17;;;;;;;120.30;22.05;;;14.70;99.90;;;;;;4948510;29;20048;-50
2021/08/21 06:03:43;;;;;;;69.30;23.38;;;14.70;99.90;;;;;;4947432;29;20087;-52
2021/08/21 06:06:13;;;;;;;67.55;21.98;;;14.70;99.90;;;;;;4952332;29;20504;-51
2021/08/21 06:08:40;;;;;;;102.97;21.02;;;14.80;99.90;;;;;;4930552;29;20234;-51
2021/08/21 06:11:06;;;;;;;95.20;22.45;;;14.70;99.90;;;;;;4949063;29;20489;-48
2021/08/21 06:13:32;;;;;;;87.68;23.40;;;14.80;99.90;;;;;;4925973;29;20051;-50
2021/08/21 06:15:58;;;;;;;151.15;24.23;;;14.80;99.90;;;;;;4951172;29;20504;-50
2021/08/21 06:18:24;;;;;;;158.65;26.02;;;14.80;99.90;;;;;;4953546;29;20102;-49
2021/08/21 06:20:49;;;;;;;143.05;26.35;;;14.80;99.90;;;;;;4930134;29;20494;-52
2021/08/21 06:23:15;;;;;;;105.32;26.23;;;14.80;99.90;;;;;;4943230;29;20103;-51
2021/08/21 06:25:41;;;;;;;136.48;27.70;;;14.80;99.90;;;;;;4950078;29;20130;-49
2021/08/21 06:28:06;;;;;;;128.35;28.40;;;14.80;99.90;;;;;;4961971;28;20507;-51
2021/08/21 06:30:32;;;;;;;94.53;28.80;;;14.90;99.90;;;;;;4957485;28;20074;-50
2021/08/21 06:32:58;;;;;;;68.57;28.70;;;14.80;99.90;;;;;;4945577;29;20076;-51
2021/08/21 06:35:25;;;;;;;74.03;26.15;;;14.90;99.90;;;;;;4947255;28;20071;-48
2021/08/21 06:37:52;;;;;;;63.67;25.38;;;14.90;99.90;;;;;;4925607;28;20475;-50
2021/08/21 06:40:18;;;;;;;94.47;29.13;;;15.00;99.90;;;;;;4965863;28;20126;-47
2021/08/21 06:42:46;;;;;;;47.05;28.02;;;15.00;99.90;;;;;;4932054;29;20058;-49
2021/08/21 06:45:12;;;;;;;74.57;30.70;;;15.10;99.90;;;;;;4942307;29;20415;-50
2021/08/21 06:47:38;;;;;;;60.03;31.85;;;15.10;99.90;;;;;;4952290;29;20047;-54
2021/08/21 06:50:05;;;;;;;48.53;29.65;;;15.20;99.90;;;;;;4949078;28;20043;-53
2021/08/21 06:52:31;;;;;;;47.80;28.23;;;15.30;99.90;;;;;;4947928;29;20404;-54
2021/08/21 06:54:56;;;;;;;56.17;30.92;;;15.30;99.90;;;;;;4951582;28;20041;-54
2021/08/21 06:57:22;;;;;;;55.13;31.45;;;15.40;99.90;;;;;;4950600;28;20058;-51
2021/08/21 06:59:48;;;;;;;58.55;32.20;;;15.50;99.90;;;;;;4948714;29;20497;-54
2021/08/21 07:02:14;;;;;;;51.38;29.30;;;15.50;99.90;;;;;;4949056;29;20063;-52
2021/08/21 07:04:42;;;;;;;48.28;29.25;;;15.60;99.90;;;;;;4949162;28;20072;-48
2021/08/21 07:07:08;;;;;;;52.08;31.55;;;15.60;99.90;;;;;;4945083;29;20040;-52
2021/08/21 07:09:34;;;;;;;58.08;33.53;;;15.70;99.90;;;;;;4951897;29;20494;-50
2021/08/21 07:12:01;;;;;;;59.97;35.38;;;15.80;99.90;;;;;;4948109;29;20146;-52
2021/08/21 07:14:27;;;;;;;68.70;38.22;;;15.90;99.90;;;;;;4949098;28;20078;-54
2021/08/21 07:16:53;;;;;;;69.28;39.13;;;15.90;99.90;;;;;;4949996;28;20055;-52
2021/08/21 07:19:19;;;;;;;69.97;38.60;;;15.90;99.90;;;;;;4922228;29;20431;-53
2021/08/21 07:21:46;;;;;;;67.93;38.85;;;16.00;99.90;;;;;;4938223;29;20122;-54
2021/08/21 07:24:12;;;;;;;68.20;38.80;;;16.00;99.90;;;;;;4934269;28;20423;-48
2021/08/21 07:26:37;;;;;;;55.38;37.15;;;16.10;99.90;;;;;;4955746;29;20043;-49
2021/08/21 07:29:04;;;;;;;63.03;38.80;;;16.10;99.90;;;;;;4954289;28;20055;-51
2021/08/21 07:31:29;;;;;;;73.53;42.80;;;16.10;99.90;;;;;;4954610;29;20043;-51
2021/08/21 07:33:56;;;;;;;60.97;38.08;;;16.20;99.90;;;;;;4952335;28;20066;-48
2021/08/21 07:36:23;;;;;;;65.38;40.80;;;16.30;99.90;;;;;;4951454;28;20098;-51
2021/08/21 07:38:48;;;;;;;59.03;40.38;;;16.30;99.90;;;;;;4951145;29;20047;-51
2021/08/21 07:41:14;;;;;;;61.45;40.22;;;16.40;99.90;;;;;;4950622;29;20392;-52
2021/08/21 07:43:41;;;;;;;74.72;43.92;;;16.40;99.90;;;;;;4950922;29;20090;-52
2021/08/21 07:46:08;;;;;;;59.78;40.85;;;16.50;99.90;;;;;;4903195;29;20512;-51
2021/08/21 07:48:33;;;;;;;60.15;41.38;;;16.50;99.90;;;;;;4943725;29;20040;-58
2021/08/21 07:51:01;;;;;;;60.13;40.97;;;16.60;99.90;;;;;;4950487;29;20035;-52
2021/08/21 07:53:27;;;;;;;59.97;39.90;;;16.60;99.90;;;;;;4931166;29;20461;-55
2021/08/21 07:55:53;;;;;;;65.78;42.95;;;16.70;99.90;;;;;;4945935;29;20039;-55
2021/08/21 07:58:19;;;;;;;59.83;41.03;;;16.70;99.90;;;;;;4920616;29;20475;-55
2021/08/21 08:00:44;;;;;;;70.57;44.58;;;16.80;99.90;;;;;;4931224;29;20127;-55
2021/08/21 08:03:14;;;;;;;63.42;41.00;;;16.80;99.90;;;;;;4941444;28;20043;-55
2021/08/21 08:05:41;;;;;;;56.35;39.17;;;16.90;99.90;;;;;;4946403;29;20525;-56
2021/08/21 08:08:07;;;;;;;57.60;39.22;;;16.90;99.90;;;;;;4916005;29;20107;-56
2021/08/21 08:10:33;;;;;;;62.08;42.72;;;16.90;99.90;;;;;;4946993;29;20043;-56
2021/08/21 08:13:08;;;;;;;59.63;40.78;;;17.00;99.90;;;;;;4946504;29;20086;-55
2021/08/21 08:15:35;;;;;;;65.30;41.67;;;17.00;99.90;;;;;;4916457;29;20043;-56
2021/08/21 08:18:05;;;;;;;69.50;43.38;;;17.10;99.90;;;;;;4934391;29;20091;-56
2021/08/21 08:20:30;;;;;;;59.15;41.67;;;17.10;99.90;;;;;;4945066;29;20035;-55
2021/08/21 08:22:56;;;;;;;61.90;42.03;;;17.20;99.90;;;;;;4942168;29;20039;-55
2021/08/21 08:25:22;;;;;;;61.00;42.60;;;17.20;99.90;;;;;;4946194;28;20046;-55
2021/08/21 08:27:49;;;;;;;57.65;40.63;;;17.30;99.90;;;;;;4944872;28;20432;-56
2021/08/21 08:30:15;;;;;;;56.35;40.92;;;17.30;99.90;;;;;;4941829;29;20047;-56
2021/08/21 08:32:42;;;;;;;57.53;41.80;;;17.40;99.90;;;;;;4941925;29;20078;-56
2021/08/21 08:35:09;;;;;;;53.03;38.65;;;17.40;99.90;;;;;;4952164;28;20058;-56
2021/08/21 08:37:35;;;;;;;52.72;39.10;;;17.60;99.90;;;;;;4953646;29;20042;-56
2021/08/21 08:40:00;;;;;;;51.58;39.13;;;17.70;99.90;;;;;;4953636;29;20492;-56
2021/08/21 08:42:27;;;;;;;52.15;39.72;;;17.80;99.90;;;;;;4945543;29;20127;-56
2021/08/21 08:44:53;;;;;;;50.97;39.20;;;18.00;99.90;;;;;;4955348;28;20047;-56
2021/08/21 08:47:19;;;;;;;48.85;38.78;;;18.20;99.90;;;;;;4953829;29;20488;-58
2021/08/21 08:49:46;;;;;;;48.55;38.05;;;18.30;99.90;;;;;;4941361;28;20069;-55
2021/08/21 08:52:16;;;;;;;49.90;37.50;;;18.50;99.90;;;;;;4939266;29;20036;-58
2021/08/21 08:54:42;;;;;;;47.92;36.80;;;18.60;99.40;;;;;;4930600;29;20067;-58
2021/08/21 08:57:08;;;;;;;46.05;35.60;;;18.70;98.90;;;;;;4933808;29;20062;-50
2021/08/21 08:59:34;;;;;;;46.22;35.30;;;18.70;98.90;;;;;;4947493;29;20056;-53
2021/08/21 09:02:00;;;;;;;48.22;36.28;;;18.70;98.90;;;;;;4928968;29;20039;-53
2021/08/21 09:04:27;;;;;;;49.45;35.45;;;18.70;98.90;;;;;;4915540;29;20163;-53
2021/08/21 09:06:53;;;;;;;47.38;33.90;;;18.80;98.80;;;;;;4943191;29;20051;-59
2021/08/21 09:09:25;;;;;;;44.78;34.50;;;18.90;98.70;;;;;;4941246;29;20413;-56
2021/08/21 09:11:54;;;;;;;48.15;36.90;;;19.00;98.20;;;;;;4926940;29;20207;-55
2021/08/21 09:14:29;;;;;;;43.25;33.60;;;19.10;97.30;;;;;;4939928;28;20040;-52
2021/08/21 09:17:18;;;;;;;42.97;32.72;;;19.20;97.70;;;;;;4949764;28;20035;-55
2021/08/21 09:19:45;;;;;;;43.63;33.08;;;19.30;97.60;;;;;;4943566;29;20039;-57
2021/08/21 09:22:12;;;;;;;44.35;32.95;;;19.40;97.60;;;;;;4941849;28;20043;-54
2021/08/21 09:24:40;;;;;;;42.15;32.67;;;19.50;96.70;;;;;;4902875;29;20502;-55
2021/08/21 09:27:21;;;;;;;40.80;32.50;;;19.50;96.40;;;;;;4951408;28;20140;-54
2021/08/21 09:30:13;;;;;;;40.50;31.63;;;19.50;96.00;;;;;;4953049;28;20039;-56
2021/08/21 09:32:41;;;;;;;39.90;31.60;;;19.50;96.10;;;;;;4950639;28;20399;-54
2021/08/21 09:35:12;;;;;;;38.45;30.67;;;19.60;96.30;;;;;;4934917;29;20047;-54
2021/08/21 09:37:53;;;;;;;35.78;30.65;;;19.70;96.30;;;;;;4945706;28;20046;-54
2021/08/21 09:40:27;;;;;;;39.40;30.83;;;19.80;96.00;;;;;;4936353;29;20043;-53
2021/08/21 09:42:53;;;;;;;36.00;30.52;;;19.90;95.30;;;;;;4952136;28;20408;-55
2021/08/21 09:45:21;;;;;;;36.83;29.80;;;20.00;94.80;;;;;;4948100;28;20044;-56
2021/08/21 09:47:47;;;;;;;36.70;30.50;;;19.90;94.80;;;;;;4932757;29;20047;-54
2021/08/21 09:50:17;;;;;;;32.75;29.15;;;19.90;94.80;;;;;;4951705;29;20047;-53
2021/08/21 09:52:44;;;;;;;34.92;29.38;;;19.90;94.70;;;;;;4953054;29;20039;-53
2021/08/21 09:55:15;;;;;;;33.22;26.67;;;19.90;94.30;;;;;;4950078;28;20067;-54
2021/08/21 09:57:42;;;;;;;32.83;28.27;;;20.10;94.60;;;;;;4953078;29;20098;-54
2021/08/21 10:00:08;;;;;;;31.88;27.65;;;20.20;94.30;;;;;;4932759;29;20047;-56
2021/08/21 10:02:34;;;;;;;32.47;26.52;;;20.10;93.90;;;;;;4952913;29;20047;-56
2021/08/21 10:05:01;;;;;;;31.95;27.20;;;20.10;93.90;;;;;;4952780;28;20093;-54
2021/08/21 10:07:50;;;;;;;29.42;25.13;;;20.10;93.90;;;;;;4919333;29;20047;-54
2021/08/21 10:10:17;;;;;;;29.90;25.63;;;20.10;94.30;;;;;;4952790;29;20049;-53
2021/08/21 10:12:46;;;;;;;30.42;25.13;;;20.20;94.30;;;;;;4945586;28;20440;-54
2021/08/21 10:15:14;;;;;;;28.85;25.40;;;20.20;94.10;;;;;;4935085;29;20035;-52
2021/08/21 10:17:43;;;;;;;30.75;24.23;;;20.30;94.10;;;;;;4952003;28;20250;-57
2021/08/21 10:20:12;;;;;;;29.30;22.75;;;20.30;94.30;;;;;;4934962;29;20467;-54
2021/08/21 10:22:40;;;;;;;32.72;26.42;;;20.50;93.80;;;;;;4944887;28;20043;-55
2021/08/21 10:25:09;;;;;;;26.50;23.38;;;20.60;93.70;;;;;;4952150;28;20496;-59
2021/08/21 10:27:46;;;;;;;30.98;25.65;;;20.70;94.00;;;;;;4951840;29;20047;-56
2021/08/21 10:30:20;;;;;;;27.83;22.90;;;20.60;93.40;;;;;;4925750;29;20074;-54
2021/08/21 10:32:59;;;;;;;24.70;20.50;;;20.50;93.40;;;;;;4949696;29;20062;-52
2021/08/21 10:35:51;;;;;;;21.88;18.27;;;20.50;93.40;;;;;;4941247;29;20032;-56
2021/08/21 10:38:33;;;;;;;25.42;18.73;;;20.60;93.20;;;;;;4937887;29;20062;-56
2021/08/21 10:41:01;;;;;;;18.90;15.05;;;20.80;91.90;;;;;;4953278;29;20122;-56
2021/08/21 10:43:47;;;;;;;13.48;10.75;;;20.90;92.20;;;;;;4953766;29;20034;-56
2021/08/21 10:46:33;;;;;;;12.10;9.80;;;21.10;90.90;;;;;;4952834;29;20031;-56
2021/08/21 10:49:03;;;;;;;11.25;9.05;;;21.20;90.70;;;;;;4930861;29;20047;-53
2021/08/21 10:51:42;;;;;;;11.23;8.43;;;21.30;90.50;;;;;;4927680;29;20043;-54
2021/08/21 10:54:26;;;;;;;7.03;5.43;;;21.40;88.40;;;;;;4947927;28;20138;-52
2021/08/21 10:56:57;;;;;;;7.43;4.78;;;21.40;88.90;;;;;;4919690;29;20523;-53
2021/08/21 10:59:42;;;;;;;14.55;9.65;;;21.40;86.60;;;;;;4939291;28;20047;-56
2021/08/21 11:02:26;;;;;;;9.75;7.50;;;21.40;85.60;;;;;;4943196;28;20040;-53
2021/08/21 11:04:55;;;;;;;8.80;7.00;;;21.50;86.70;;;;;;4958761;28;20227;-56
2021/08/21 11:07:30;;;;;;;11.52;8.90;;;21.50;87.40;;;;;;4945558;29;20043;-56
2021/08/21 11:10:15;;;;;;;12.10;9.07;;;21.50;86.00;;;;;;4951640;29;20066;-56
2021/08/21 11:12:47;;;;;;;11.63;8.38;;;21.50;86.40;;;;;;4949148;29;20035;-56
2021/08/21 11:15:17;;;;;;;9.60;6.28;;;21.60;86.70;;;;;;4941707;29;20047;-56
2021/08/21 11:17:42;;;;;;;14.05;9.93;;;21.60;86.80;;;;;;4950334;29;20048;-55
2021/08/21 11:20:35;;;;;;;11.27;9.48;;;21.60;85.80;;;;;;4947954;29;20043;-55
2021/08/21 11:23:07;;;;;;;11.52;7.72;;;21.70;85.10;;;;;;4946453;29;20054;-57
2021/08/21 11:25:37;;;;;;;12.95;8.93;;;21.70;85.90;;;;;;4935089;29;20047;-57
2021/08/21 11:28:22;;;;;;;11.77;8.15;;;21.80;86.70;;;;;;4948944;28;20964;-55
2021/08/21 11:31:08;;;;;;;10.25;7.50;;;21.90;86.40;;;;;;4906262;29;20140;-54
2021/08/21 11:33:36;;;;;;;10.65;8.50;;;22.00;87.00;;;;;;4944395;29;20050;-55
2021/08/21 11:36:02;;;;;;;11.27;7.55;;;22.00;85.70;;;;;;4924402;29;20040;-55
2021/08/21 11:38:31;;;;;;;11.50;7.28;;;22.00;85.20;;;;;;4943206;29;20103;-54
2021/08/21 11:40:58;;;;;;;9.82;7.35;;;21.90;84.50;;;;;;4948213;28;20044;-55
2021/08/21 11:43:28;;;;;;;8.13;6.63;;;21.80;81.90;;;;;;4950691;29;20049;-53
2021/08/21 11:45:56;;;;;;;9.82;7.00;;;21.70;82.00;;;;;;4933023;29;20562;-55
2021/08/21 11:48:30;;;;;;;9.45;5.70;;;21.70;83.50;;;;;;4940024;29;20039;-55
2021/08/21 11:50:58;;;;;;;8.57;6.93;;;21.70;84.60;;;;;;4904996;29;20043;-54
2021/08/21 11:53:25;;;;;;;9.35;6.80;;;21.90;84.70;;;;;;4942727;28;20095;-53
2021/08/21 11:55:54;;;;;;;8.45;6.25;;;22.00;84.30;;;;;;4952029;29;20055;-55
2021/08/21 11:58:32;;;;;;;10.25;7.72;;;22.20;83.30;;;;;;4912447;29;20035;-55
2021/08/21 12:01:03;;;;;;;9.68;7.22;;;22.30;80.30;;;;;;4950252;29;20083;-52
2021/08/21 12:06:30;;;;;;;16.73;7.60;;;22.30;81.40;;;;;;4928712;29;20514;-56
2021/08/21 12:09:12;;;;;;;9.18;6.50;;;22.30;80.30;;;;;;4940366;29;20133;-56
2021/08/21 12:11:40;;;;;;;8.88;6.03;;;22.30;79.50;;;;;;4949555;29;20047;-55
2021/08/21 12:14:06;;;;;;;10.18;7.70;;;22.20;81.60;;;;;;4942581;29;20559;-54
2021/08/21 12:16:35;;;;;;;12.35;6.80;;;22.20;80.60;;;;;;4947002;29;20032;-55
2021/08/21 12:19:01;;;;;;;8.68;6.65;;;22.20;80.10;;;;;;4946659;29;20043;-54
2021/08/21 12:21:26;;;;;;;10.32;6.85;;;22.30;80.30;;;;;;4944896;29;20492;-55
2021/08/21 12:23:55;;;;;;;9.43;6.63;;;22.40;80.10;;;;;;4949579;29;20043;-55
2021/08/21 12:26:40;;;;;;;9.38;6.72;;;22.50;81.10;;;;;;4935871;29;20504;-56
2021/08/21 12:29:31;;;;;;;12.15;8.35;;;22.60;80.40;;;;;;4951021;29;20063;-56
2021/08/21 12:31:58;;;;;;;10.98;7.57;;;22.80;80.20;;;;;;4955095;29;20039;-55
2021/08/21 12:34:26;;;;;;;13.35;7.95;;;22.80;80.40;;;;;;4951164;29;20043;-56
2021/08/21 12:36:53;;;;;;;11.23;7.82;;;23.00;80.20;;;;;;4952655;29;20047;-55
2021/08/21 12:39:21;;;;;;;10.98;7.80;;;23.00;79.80;;;;;;4952297;29;20056;-55
2021/08/21 12:41:52;;;;;;;8.65;6.60;;;23.00;79.20;;;;;;4901470;29;20039;-55